createdAt,value
2023-04-09T00:02:25.302Z,5.47
2023-04-09T00:04:52.619Z,4.72
2023-04-09T00:07:19.857Z,5.05
2023-04-09T00:09:46.825Z,4.65
2023-04-09T00:12:13.834Z,4.07
2023-04-09T00:14:40.819Z,5.05
2023-04-09T00:17:07.763Z,5.13
2023-04-09T00:19:34.721Z,4.90
2023-04-09T00:22:01.805Z,5.22
2023-04-09T00:24:28.753Z,5.22
2023-04-09T00:26:55.692Z,5.10
2023-04-09T00:29:22.809Z,5.88
2023-04-09T00:31:49.926Z,4.78
2023-04-09T00:34:16.929Z,5.03
2023-04-09T00:36:43.885Z,5.32
2023-04-09T00:39:11.052Z,5.40
2023-04-09T00:41:38.208Z,5.50
2023-04-09T00:44:05.151Z,5.03
2023-04-09T00:46:32.663Z,5.57
2023-04-09T00:49:00.109Z,5.38
2023-04-09T00:51:28.645Z,5.30
2023-04-09T00:53:56.259Z,5.13
2023-04-09T00:56:24.838Z,5.43
2023-04-09T00:58:52.050Z,5.90
2023-04-09T01:01:19.353Z,4.72
2023-04-09T01:03:46.681Z,5.72
2023-04-09T01:06:38.063Z,4.47
2023-04-09T01:09:35.510Z,5.38
2023-04-09T01:12:38.877Z,5.30
2023-04-09T01:15:08.718Z,5.72
2023-04-09T01:17:50.605Z,5.82
2023-04-09T01:20:40.854Z,5.40
2023-04-09T01:23:10.675Z,5.80
2023-04-09T01:25:59.316Z,6.88
2023-04-09T01:28:35.423Z,5.43
2023-04-09T01:31:09.032Z,5.35
2023-04-09T01:33:38.064Z,5.72
2023-04-09T01:36:07.147Z,5.97
2023-04-09T01:38:36.731Z,6.47
2023-04-09T01:41:05.263Z,5.53
2023-04-09T01:43:33.767Z,6.60
2023-04-09T01:46:03.434Z,6.20
2023-04-09T01:48:31.669Z,5.65
2023-04-09T01:50:59.459Z,6.20
2023-04-09T01:53:29.323Z,6.50
2023-04-09T01:55:56.839Z,6.78
2023-04-09T01:58:25.642Z,6.50
2023-04-09T02:00:59.886Z,6.55
2023-04-09T02:03:51.789Z,6.22
2023-04-09T02:06:44.433Z,6.95
2023-04-09T02:09:12.685Z,6.50
2023-04-09T02:11:43.154Z,6.00
2023-04-09T02:14:11.875Z,6.60
2023-04-09T02:16:40.789Z,6.18
2023-04-09T02:19:07.868Z,5.78
2023-04-09T02:21:34.849Z,6.68
2023-04-09T02:24:01.827Z,5.80
2023-04-09T02:26:28.862Z,6.45
2023-04-09T02:28:55.951Z,6.10
2023-04-09T02:31:22.946Z,6.75
2023-04-09T02:33:51.125Z,6.75
2023-04-09T02:36:18.096Z,7.15
2023-04-09T02:38:45.529Z,6.60
2023-04-09T02:41:12.619Z,7.00
2023-04-09T02:43:39.636Z,7.38
2023-04-09T02:46:08.510Z,7.97
2023-04-09T02:48:35.442Z,7.22
2023-04-09T02:51:05.360Z,8.00
2023-04-09T02:53:32.308Z,7.95
2023-04-09T02:55:59.279Z,6.95
2023-04-09T02:58:26.289Z,7.50
2023-04-09T03:00:53.293Z,7.93
2023-04-09T03:03:20.521Z,9.00
2023-04-09T03:05:47.509Z,8.32
2023-04-09T03:08:14.737Z,9.23
2023-04-09T03:10:41.857Z,9.70
2023-04-09T03:13:08.850Z,10.40
2023-04-09T03:15:36.113Z,9.75
2023-04-09T03:18:03.170Z,9.77
2023-04-09T03:20:30.734Z,10.10
2023-04-09T03:22:57.708Z,11.35
2023-04-09T03:25:24.771Z,9.95
2023-04-09T03:27:51.966Z,10.27
2023-04-09T03:30:18.938Z,10.75
2023-04-09T03:32:45.936Z,10.75
2023-04-09T03:35:12.959Z,11.23
2023-04-09T03:38:41.669Z,11.52
2023-04-09T03:41:08.663Z,10.95
2023-04-09T03:43:36.229Z,11.02
2023-04-09T03:46:15.671Z,12.40
2023-04-09T03:48:42.956Z,11.27
2023-04-09T03:51:17.018Z,11.68
2023-04-09T03:53:44.156Z,10.65
2023-04-09T03:56:11.676Z,11.77
2023-04-09T03:58:38.737Z,12.00
2023-04-09T04:01:05.997Z,11.30
2023-04-09T04:03:33.215Z,11.80
2023-04-09T04:06:04.773Z,12.02
2023-04-09T04:08:31.748Z,12.18
2023-04-09T04:11:04.886Z,10.90
2023-04-09T04:13:32.092Z,13.65
2023-04-09T04:15:59.250Z,12.32
2023-04-09T04:18:26.280Z,12.25
2023-04-09T04:20:53.224Z,12.05
2023-04-09T04:23:20.254Z,12.75
2023-04-09T04:25:47.244Z,12.10
2023-04-09T04:28:14.238Z,12.35
2023-04-09T04:30:44.225Z,12.20
2023-04-09T04:33:11.256Z,11.18
2023-04-09T04:35:38.350Z,12.65
2023-04-09T04:38:05.394Z,10.50
2023-04-09T04:40:32.397Z,12.23
2023-04-09T04:42:59.391Z,11.38
2023-04-09T04:45:26.427Z,11.85
2023-04-09T04:47:53.506Z,12.27
2023-04-09T04:50:20.582Z,11.95
2023-04-09T04:52:47.532Z,11.98
2023-04-09T04:55:14.516Z,11.23
2023-04-09T04:57:41.462Z,10.75
2023-04-09T05:00:09.302Z,11.70
2023-04-09T05:02:36.386Z,10.45
2023-04-09T05:05:03.580Z,11.63
2023-04-09T05:07:30.647Z,11.57
2023-04-09T05:09:58.810Z,11.27
2023-04-09T05:12:25.896Z,11.40
2023-04-09T05:14:53.162Z,12.02
2023-04-09T05:17:20.257Z,12.30
2023-04-09T05:19:55.019Z,11.95
2023-04-09T05:22:22.090Z,11.07
2023-04-09T05:24:49.208Z,11.18
2023-04-09T05:27:16.678Z,11.32
2023-04-09T05:29:43.690Z,11.73
2023-04-09T05:32:10.751Z,11.27
2023-04-09T05:34:37.716Z,12.25
2023-04-09T05:37:04.764Z,11.60
2023-04-09T05:39:33.274Z,11.07
2023-04-09T05:42:00.951Z,12.63
2023-04-09T05:44:28.098Z,11.82
2023-04-09T05:46:55.079Z,12.63
2023-04-09T05:49:22.271Z,12.95
2023-04-09T05:51:50.710Z,12.70
2023-04-09T05:54:17.843Z,12.65
2023-04-09T05:56:44.848Z,12.45
2023-04-09T05:59:11.866Z,13.23
2023-04-09T06:01:38.811Z,12.70
2023-04-09T06:04:06.253Z,13.80
2023-04-09T06:06:33.358Z,13.55
2023-04-09T06:09:00.369Z,11.88
2023-04-09T06:11:27.346Z,13.93
2023-04-09T06:13:54.449Z,13.35
2023-04-09T06:16:21.674Z,13.05
2023-04-09T06:18:50.927Z,12.80
2023-04-09T06:21:18.018Z,11.68
2023-04-09T06:23:45.159Z,13.38
2023-04-09T06:26:12.308Z,11.98
2023-04-09T06:28:39.474Z,12.32
2023-04-09T06:31:06.617Z,11.57
2023-04-09T06:33:33.725Z,12.93
2023-04-09T06:36:00.824Z,12.82
2023-04-09T06:38:27.882Z,12.50
2023-04-09T06:40:57.267Z,12.32
2023-04-09T06:43:24.302Z,11.73
2023-04-09T06:45:51.536Z,12.02
2023-04-09T06:48:18.697Z,12.05
2023-04-09T06:50:45.916Z,13.50
2023-04-09T06:53:13.039Z,12.85
2023-04-09T06:55:40.205Z,11.20
2023-04-09T06:58:07.139Z,11.43
2023-04-09T07:00:34.151Z,12.30
2023-04-09T07:03:01.717Z,12.57
2023-04-09T07:05:28.980Z,12.93
2023-04-09T07:07:56.138Z,10.27
2023-04-09T07:10:23.087Z,14.07
2023-04-09T07:12:50.082Z,12.52
2023-04-09T07:15:17.203Z,13.70
2023-04-09T07:17:44.370Z,13.23
2023-04-09T07:20:12.055Z,11.82
2023-04-09T07:22:39.117Z,13.10
2023-04-09T07:25:06.891Z,13.57
2023-04-09T07:27:33.884Z,12.63
2023-04-09T07:30:01.144Z,14.45
2023-04-09T07:32:28.722Z,12.70
2023-04-09T07:34:57.358Z,12.60
2023-04-09T07:37:24.510Z,12.90
2023-04-09T07:39:51.592Z,13.15
2023-04-09T07:42:18.587Z,11.77
2023-04-09T07:44:45.700Z,13.30
2023-04-09T07:47:13.008Z,12.55
2023-04-09T07:49:40.638Z,13.48
2023-04-09T07:52:08.211Z,12.02
2023-04-09T07:54:35.852Z,10.63
2023-04-09T07:57:03.145Z,12.57
2023-04-09T07:59:31.661Z,11.25
2023-04-09T08:01:59.634Z,14.57
2023-04-09T08:04:27.431Z,12.40
2023-04-09T08:06:54.863Z,12.77
2023-04-09T08:09:21.924Z,13.95
2023-04-09T08:11:50.409Z,11.88
2023-04-09T08:14:18.597Z,11.88
2023-04-09T08:16:50.309Z,11.07
2023-04-09T08:19:20.104Z,13.47
2023-04-09T08:21:48.985Z,11.82
2023-04-09T08:24:16.524Z,12.57
2023-04-09T08:26:43.901Z,12.35
2023-04-09T08:29:13.104Z,12.65
2023-04-09T08:31:40.436Z,13.13
2023-04-09T08:34:07.727Z,12.98
2023-04-09T08:36:35.805Z,12.10
2023-04-09T08:39:04.090Z,11.77
2023-04-09T08:41:31.530Z,11.95
2023-04-09T08:43:59.983Z,13.93
2023-04-09T08:46:28.068Z,10.45
2023-04-09T08:48:55.931Z,12.02
2023-04-09T08:51:24.538Z,11.93
2023-04-09T08:54:03.045Z,12.15
2023-04-09T08:56:31.484Z,13.05
2023-04-09T08:58:58.683Z,12.32
2023-04-09T09:01:27.234Z,12.60
2023-04-09T09:04:06.307Z,11.90
2023-04-09T09:06:37.149Z,12.55
2023-04-09T09:09:11.001Z,13.32
2023-04-09T09:11:39.564Z,12.02
2023-04-09T09:14:17.993Z,12.60
2023-04-09T09:16:57.843Z,12.60
2023-04-09T09:19:24.781Z,13.65
2023-04-09T09:22:03.112Z,12.77
2023-04-09T09:24:34.993Z,11.65
2023-04-09T09:27:03.068Z,9.93
2023-04-09T09:29:30.266Z,13.75
2023-04-09T09:31:57.344Z,11.60
2023-04-09T09:34:26.004Z,12.65
2023-04-09T09:36:53.296Z,12.73
2023-04-09T09:39:22.079Z,12.18
2023-04-09T09:42:06.604Z,13.07
2023-04-09T09:44:34.005Z,13.57
2023-04-09T09:47:03.502Z,12.40
2023-04-09T09:49:30.720Z,14.75
2023-04-09T09:51:59.510Z,13.15
2023-04-09T09:54:31.929Z,13.98
2023-04-09T09:57:04.771Z,13.05
2023-04-09T10:02:07.503Z,13.05
2023-04-09T10:04:38.157Z,14.40
2023-04-09T10:07:07.437Z,12.35
2023-04-09T10:09:37.769Z,13.50
2023-04-09T10:12:09.673Z,13.25
2023-04-09T10:14:37.360Z,12.90
2023-04-09T10:17:04.934Z,9.82
2023-04-09T10:19:35.680Z,12.40
2023-04-09T10:22:12.097Z,11.85
2023-04-09T10:24:39.726Z,12.77
2023-04-09T10:27:17.057Z,13.65
2023-04-09T10:29:49.645Z,11.38
2023-04-09T10:32:23.931Z,10.95
2023-04-09T10:34:51.060Z,11.65
2023-04-09T10:37:26.806Z,12.13
2023-04-09T10:39:54.510Z,11.88
2023-04-09T10:42:30.365Z,9.40
2023-04-09T10:45:10.824Z,13.02
2023-04-09T10:47:40.468Z,11.65
2023-04-09T10:50:24.132Z,10.15
2023-04-09T10:53:00.390Z,11.70
2023-04-09T10:55:37.147Z,10.32
2023-04-09T10:58:12.346Z,11.43
2023-04-09T11:00:45.611Z,11.82
2023-04-09T11:03:26.152Z,12.07
2023-04-09T11:06:10.571Z,11.52
2023-04-09T11:08:38.907Z,10.65
2023-04-09T11:11:06.158Z,9.05
2023-04-09T11:13:34.372Z,10.27
2023-04-09T11:16:04.135Z,10.45
2023-04-09T11:18:33.900Z,10.85
2023-04-09T11:21:04.094Z,11.07
2023-04-09T11:23:32.886Z,12.20
2023-04-09T11:26:00.110Z,9.75
2023-04-09T11:28:27.738Z,11.30
2023-04-09T11:30:54.841Z,11.35
2023-04-09T11:33:22.452Z,10.00
2023-04-09T11:35:49.555Z,10.05
2023-04-09T11:38:16.723Z,9.32
2023-04-09T11:40:49.379Z,9.65
2023-04-09T11:43:17.712Z,9.10
2023-04-09T11:45:48.117Z,9.57
2023-04-09T11:48:18.400Z,8.88
2023-04-09T11:50:47.471Z,8.85
2023-04-09T11:53:19.717Z,9.55
2023-04-09T11:55:56.334Z,8.90
2023-04-09T11:58:26.291Z,8.77
2023-04-09T12:00:56.260Z,9.60
2023-04-09T12:03:34.187Z,8.07
2023-04-09T12:06:03.102Z,7.85
2023-04-09T12:08:31.293Z,8.80
2023-04-09T12:11:12.843Z,7.95
2023-04-09T12:13:45.843Z,7.38
2023-04-09T12:16:14.390Z,6.88
2023-04-09T12:18:41.711Z,7.20
2023-04-09T12:21:08.887Z,7.15
2023-04-09T12:23:36.066Z,7.38
2023-04-09T12:26:03.252Z,5.03
2023-04-09T12:28:30.956Z,3.28
2023-04-09T12:30:59.556Z,6.60
2023-04-09T12:33:27.231Z,6.00
2023-04-09T12:35:54.276Z,6.65
2023-04-09T12:38:21.437Z,7.90
2023-04-09T12:40:48.521Z,6.82
2023-04-09T12:43:15.800Z,6.30
2023-04-09T12:45:43.185Z,5.97
2023-04-09T12:48:10.327Z,5.68
2023-04-09T12:50:37.326Z,6.13
2023-04-09T12:53:04.348Z,6.38
2023-04-09T12:55:31.671Z,7.05
2023-04-09T12:57:58.783Z,5.13
2023-04-09T13:00:25.792Z,5.90
2023-04-09T13:02:53.104Z,5.60
2023-04-09T13:05:20.358Z,5.57
2023-04-09T13:07:47.605Z,6.82
2023-04-09T13:10:14.731Z,6.85
2023-04-09T13:12:41.707Z,5.90
2023-04-09T13:15:08.997Z,5.90
2023-04-09T13:17:36.058Z,5.68
2023-04-09T13:20:03.753Z,6.03
2023-04-09T13:22:30.991Z,6.88
2023-04-09T13:24:58.007Z,5.97
2023-04-09T13:27:25.030Z,6.20
2023-04-09T13:29:52.071Z,5.30
2023-04-09T13:32:21.193Z,5.38
2023-04-09T13:34:48.281Z,5.00
2023-04-09T13:37:15.739Z,4.78
2023-04-09T13:39:44.303Z,4.82
2023-04-09T13:42:14.165Z,4.63
2023-04-09T13:44:44.629Z,5.10
2023-04-09T13:47:13.521Z,4.97
2023-04-09T13:49:41.455Z,4.85
2023-04-09T13:52:09.128Z,4.90
2023-04-09T13:54:36.308Z,4.55
2023-04-09T13:57:03.940Z,5.22
2023-04-09T13:59:31.038Z,4.25
2023-04-09T14:01:58.301Z,3.80
2023-04-09T14:04:25.579Z,4.28
2023-04-09T14:06:52.579Z,4.72
2023-04-09T14:09:19.578Z,4.82
2023-04-09T14:11:46.558Z,4.70
2023-04-09T14:14:13.578Z,4.28
2023-04-09T14:16:40.800Z,4.50
2023-04-09T14:19:10.048Z,3.88
2023-04-09T14:21:37.061Z,4.28
2023-04-09T14:24:04.263Z,4.57
2023-04-09T14:26:31.626Z,4.20
2023-04-09T14:28:59.626Z,4.00
2023-04-09T14:31:26.764Z,4.28
2023-04-09T14:33:53.732Z,4.38
2023-04-09T14:36:21.433Z,3.83
2023-04-09T14:38:49.221Z,4.28
2023-04-09T14:41:17.076Z,4.32
2023-04-09T14:43:44.121Z,4.00
2023-04-09T14:46:12.205Z,3.85
2023-04-09T14:48:40.248Z,4.05
2023-04-09T14:51:10.124Z,3.80
2023-04-09T14:53:37.500Z,3.97
2023-04-09T14:56:05.149Z,3.13
2023-04-09T14:58:32.165Z,4.43
2023-04-09T15:00:59.112Z,3.78
2023-04-09T15:03:26.315Z,3.95
2023-04-09T15:05:53.724Z,3.63
2023-04-09T15:08:20.989Z,3.63
2023-04-09T15:10:48.016Z,3.67
2023-04-09T15:13:14.984Z,4.22
2023-04-09T15:15:44.077Z,3.60
2023-04-09T15:18:11.232Z,4.15
2023-04-09T15:20:39.361Z,4.10
2023-04-09T15:23:06.690Z,3.30
2023-04-09T15:25:33.752Z,3.40
2023-04-09T15:28:02.153Z,3.47
2023-04-09T15:30:29.675Z,4.20
2023-04-09T15:32:56.800Z,3.80
2023-04-09T15:35:29.392Z,3.47
2023-04-09T15:40:24.181Z,3.60
2023-04-09T15:42:51.312Z,4.13
2023-04-09T15:45:18.467Z,3.70
2023-04-09T15:47:46.227Z,3.78
2023-04-09T15:50:14.094Z,3.63
2023-04-09T15:52:41.192Z,3.60
2023-04-09T15:55:09.133Z,3.90
2023-04-09T15:57:36.496Z,2.95
2023-04-09T16:00:04.341Z,3.47
2023-04-09T16:02:31.399Z,3.67
2023-04-09T16:04:58.556Z,2.97
2023-04-09T16:07:25.689Z,3.78
2023-04-09T16:09:52.723Z,3.10
2023-04-09T16:12:19.707Z,2.97
2023-04-09T16:14:46.657Z,3.58
2023-04-09T16:17:13.614Z,3.35
2023-04-09T16:19:41.863Z,3.00
2023-04-09T16:22:09.926Z,3.85
2023-04-09T16:24:37.087Z,3.45
2023-04-09T16:27:04.128Z,3.60
2023-04-09T16:29:31.150Z,3.28
2023-04-09T16:31:58.200Z,3.17
2023-04-09T16:34:25.281Z,3.05
2023-04-09T16:36:52.346Z,3.33
2023-04-09T16:39:19.928Z,3.63
2023-04-09T16:41:46.885Z,3.28
2023-04-09T16:44:14.021Z,3.03
2023-04-09T16:46:41.389Z,3.13
2023-04-09T16:49:08.413Z,3.50
2023-04-09T16:51:35.796Z,3.55
2023-04-09T16:54:03.214Z,3.60
2023-04-09T16:56:30.680Z,3.30
2023-04-09T16:58:58.934Z,3.33
2023-04-09T17:01:26.414Z,2.58
2023-04-09T17:03:53.541Z,3.45
2023-04-09T17:06:20.718Z,3.38
2023-04-09T17:08:47.774Z,3.22
2023-04-09T17:11:16.590Z,2.97
2023-04-09T17:13:43.598Z,3.30
2023-04-09T17:16:14.330Z,3.50
2023-04-09T17:18:41.466Z,3.75
2023-04-09T17:21:08.446Z,3.42
2023-04-09T17:23:36.161Z,3.50
2023-04-09T17:26:03.196Z,3.33
2023-04-09T17:28:30.153Z,3.50
2023-04-09T17:30:57.269Z,3.35
2023-04-09T17:33:24.362Z,3.83
2023-04-09T17:35:52.938Z,3.58
2023-04-09T17:38:21.572Z,4.13
2023-04-09T17:40:48.887Z,3.58
2023-04-09T17:43:15.894Z,3.47
2023-04-09T17:45:43.278Z,3.90
2023-04-09T17:48:10.795Z,3.58
2023-04-09T17:50:39.087Z,3.90
2023-04-09T17:53:06.241Z,3.88
2023-04-09T17:55:33.443Z,3.63
2023-04-09T17:58:00.532Z,3.47
2023-04-09T18:00:28.876Z,4.28
2023-04-09T18:02:57.819Z,4.05
2023-04-09T18:05:26.080Z,4.13
2023-04-09T18:07:54.968Z,3.97
2023-04-09T18:10:22.657Z,4.18
2023-04-09T18:12:49.754Z,3.28
2023-04-09T18:15:18.723Z,3.70
2023-04-09T18:17:46.307Z,4.10
2023-04-09T18:20:15.394Z,3.85
2023-04-09T18:22:43.609Z,4.60
2023-04-09T18:25:10.913Z,4.13
2023-04-09T18:27:37.929Z,3.47
2023-04-09T18:30:07.311Z,4.60
2023-04-09T18:32:34.452Z,4.00
2023-04-09T18:35:01.735Z,4.65
2023-04-09T18:37:28.711Z,4.13
2023-04-09T18:39:55.751Z,3.70
2023-04-09T18:42:22.767Z,4.40
2023-04-09T18:44:49.729Z,4.43
2023-04-09T18:47:16.735Z,4.60
2023-04-09T18:49:43.698Z,4.88
2023-04-09T18:52:10.823Z,4.18
2023-04-09T18:54:38.964Z,3.85
2023-04-09T18:57:06.524Z,4.80
2023-04-09T18:59:34.965Z,4.55
2023-04-09T19:02:06.058Z,4.40
2023-04-09T19:04:39.828Z,4.53
2023-04-09T19:07:07.712Z,5.00
2023-04-09T19:09:35.585Z,4.38
2023-04-09T19:12:02.839Z,5.07
2023-04-09T19:14:30.050Z,4.40
2023-04-09T19:16:58.613Z,4.75
2023-04-09T19:19:25.712Z,4.63
2023-04-09T19:21:52.707Z,4.38
2023-04-09T19:24:19.678Z,4.63
2023-04-09T19:26:46.656Z,4.63
2023-04-09T19:29:13.579Z,4.32
2023-04-09T19:31:41.472Z,4.75
2023-04-09T19:34:10.775Z,4.13
2023-04-09T19:36:37.889Z,4.53
2023-04-09T19:39:05.903Z,4.50
2023-04-09T19:41:33.293Z,4.53
2023-04-09T19:44:01.435Z,4.55
2023-04-09T19:46:28.564Z,4.18
2023-04-09T19:48:56.757Z,4.45
2023-04-09T19:51:23.754Z,4.78
2023-04-09T19:53:50.721Z,5.00
2023-04-09T19:56:18.047Z,5.03
2023-04-09T19:58:45.124Z,4.43
2023-04-09T20:01:12.155Z,4.40
2023-04-09T20:03:39.211Z,4.85
2023-04-09T20:06:10.460Z,4.60
2023-04-09T20:08:38.254Z,5.05
2023-04-09T20:11:05.592Z,4.68
2023-04-09T20:13:33.305Z,4.38
2023-04-09T20:16:00.728Z,5.18
2023-04-09T20:18:28.673Z,5.00
2023-04-09T20:20:55.705Z,4.95
2023-04-09T20:23:22.777Z,4.22
2023-04-09T20:25:54.945Z,4.55
2023-04-09T20:28:22.147Z,5.20
2023-04-09T20:30:49.418Z,4.82
2023-04-09T20:33:18.193Z,5.32
2023-04-09T20:35:45.538Z,4.72
2023-04-09T20:38:12.569Z,4.82
2023-04-09T20:40:39.677Z,5.32
2023-04-09T20:43:06.664Z,4.53
2023-04-09T20:45:33.708Z,4.57
2023-04-09T20:48:01.444Z,5.53
2023-04-09T20:50:28.943Z,5.10
2023-04-09T20:52:56.070Z,5.22
2023-04-09T20:55:23.902Z,4.22
2023-04-09T20:57:51.879Z,4.65
2023-04-09T21:00:18.939Z,5.30
2023-04-09T21:02:46.243Z,3.80
2023-04-09T21:05:22.426Z,4.75
2023-04-09T21:07:50.834Z,4.07
2023-04-09T21:10:17.946Z,4.38
2023-04-09T21:12:44.924Z,4.20
2023-04-09T21:15:12.031Z,4.90
2023-04-09T21:17:38.958Z,4.13
2023-04-09T21:20:06.696Z,3.88
2023-04-09T21:22:34.792Z,4.22
2023-04-09T21:25:03.192Z,4.60
2023-04-09T21:27:30.467Z,4.20
2023-04-09T21:29:57.575Z,3.47
2023-04-09T21:32:25.261Z,4.10
2023-04-09T21:34:52.408Z,3.95
2023-04-09T21:37:19.377Z,3.75
2023-04-09T21:39:48.294Z,4.20
2023-04-09T21:42:15.756Z,3.83
2023-04-09T21:44:42.750Z,3.50
2023-04-09T21:47:09.785Z,3.78
2023-04-09T21:49:39.356Z,4.05
2023-04-09T21:52:13.808Z,3.60
2023-04-09T21:54:43.199Z,3.88
2023-04-09T21:57:11.177Z,3.97
2023-04-09T21:59:38.380Z,3.95
2023-04-09T22:02:05.698Z,3.58
2023-04-09T22:04:35.801Z,3.97
2023-04-09T22:07:03.685Z,4.13
2023-04-09T22:09:31.624Z,3.40
2023-04-09T22:11:59.660Z,4.00
2023-04-09T22:14:29.318Z,4.28
2023-04-09T22:16:58.333Z,3.17
2023-04-09T22:19:26.248Z,3.65
2023-04-09T22:21:53.641Z,3.47
2023-04-09T22:24:26.876Z,3.38
2023-04-09T22:26:54.178Z,3.05
2023-04-09T22:29:21.318Z,3.35
2023-04-09T22:31:48.386Z,3.97
2023-04-09T22:34:21.325Z,3.35
2023-04-09T22:36:48.853Z,4.00
2023-04-09T22:39:16.054Z,3.13
2023-04-09T22:41:43.136Z,3.65
2023-04-09T22:44:10.118Z,3.88
2023-04-09T22:46:37.279Z,3.30
2023-04-09T22:49:05.789Z,3.47
2023-04-09T22:51:34.678Z,3.70
2023-04-09T22:54:02.347Z,3.72
2023-04-09T22:56:31.811Z,3.53
2023-04-09T22:58:59.168Z,3.17
2023-04-09T23:01:27.800Z,3.13
2023-04-09T23:03:55.606Z,2.97
2023-04-09T23:06:22.942Z,3.90
2023-04-09T23:08:50.601Z,3.50
2023-04-09T23:11:17.611Z,3.47
2023-04-09T23:13:44.678Z,3.85
2023-04-09T23:16:11.747Z,3.58
2023-04-09T23:18:38.830Z,3.90
2023-04-09T23:21:08.103Z,3.58
2023-04-09T23:23:36.163Z,2.90
2023-04-09T23:26:03.258Z,3.20
2023-04-09T23:28:31.015Z,4.22
2023-04-09T23:30:58.093Z,3.30
2023-04-09T23:33:25.279Z,3.10
2023-04-09T23:35:52.412Z,3.85
2023-04-09T23:38:19.545Z,3.72
2023-04-09T23:40:48.171Z,3.15
2023-04-09T23:43:15.158Z,3.58
2023-04-09T23:45:43.821Z,3.55
2023-04-09T23:48:12.516Z,3.30
2023-04-09T23:50:41.416Z,3.35
2023-04-09T23:53:08.946Z,2.88
2023-04-09T23:55:41.159Z,3.70
2023-04-09T23:58:09.573Z,3.53
